createdAt,value
2019-01-19T22:07:36.901Z,76.85
2019-01-19T22:10:08.512Z,64.67
2019-01-19T22:12:37.292Z,55.67
2019-01-19T22:15:09.048Z,59.57
2019-01-19T22:17:39.545Z,58.73
2019-01-19T22:20:10.879Z,52.80
2019-01-19T22:22:39.592Z,53.17
2019-01-19T22:25:08.701Z,56.27
2019-01-19T22:27:39.089Z,51.03
2019-01-19T22:30:10.726Z,49.53
2019-01-19T22:32:39.447Z,46.90
2019-01-19T22:35:09.562Z,51.63
2019-01-19T22:37:38.201Z,48.33
2019-01-19T22:40:09.929Z,49.50
2019-01-19T22:42:38.506Z,54.10
2019-01-19T22:45:09.761Z,56.50
2019-01-19T22:47:38.281Z,62.57
2019-01-19T22:50:09.815Z,60.10
2019-01-19T22:52:38.377Z,63.83
2019-01-19T22:55:07.152Z,68.60
2019-01-19T22:57:35.678Z,65.37
2019-01-19T23:00:25.651Z,62.03
2019-01-19T23:02:54.216Z,60.47
2019-01-19T23:05:22.640Z,61.63
2019-01-19T23:07:51.208Z,62.60
2019-01-19T23:10:19.678Z,62.63
2019-01-19T23:12:50.730Z,64.97
2019-01-19T23:15:19.511Z,76.77
2019-01-19T23:17:47.943Z,64.67
2019-01-19T23:20:16.450Z,60.87
2019-01-19T23:22:44.935Z,62.60
2019-01-19T23:25:13.455Z,54.03
2019-01-19T23:27:42.095Z,57.93
2019-01-19T23:30:13.955Z,57.17
2019-01-19T23:32:42.429Z,66.30
2019-01-19T23:35:11.027Z,56.00
2019-01-19T23:37:39.626Z,59.30
2019-01-19T23:40:11.680Z,62.97
2019-01-19T23:42:46.877Z,59.73
2019-01-19T23:45:11.517Z,64.40
2019-01-19T23:47:40.076Z,64.20
2019-01-19T23:50:10.542Z,51.97
2019-01-19T23:52:39.509Z,51.47
2019-01-19T23:55:08.457Z,53.77
2019-01-19T23:57:38.602Z,58.70
